Aérodrome :







RETROUVEZ-NOUS SUR...

 
LOGIN :

S'inscrire | Disclaimer

   EN    FR    IT 

 









Légende :    VFR   VFR Marginal   IFR   IFR Intensif   IFR Très Intensif
Visi : 
Plafond : 
>= 8 km
>= 3000ft
5 à 8 km
1000 à 3000 ft
1500m à 5 km
500 à 1000 ft
800 à 1500m
200 à 500 ft
< 800m
< 200 ft
Symboles :   Orages  Brouillard  Fortes neiges  Fortes précipitations  Vent > 20 kt






- Altitude de l'aérodrome : 92 ft
- Code IATA : YZX


CYZX - CFB Greenwood

DERNIER METAR :
  • 140100Z 09006KT 15SM FEW035 OVC045 M00/M03 A3051 RMK SC2SC6 SLP335

METARs EXPIRÉS :
  • 140000Z 11003KT 15SM OVC045 M00/M03 A3053 RMK SC8 SLP340
  • 132300Z 13005KT 15SM BKN040 M00/M03 A3055 RMK SC6 SLP348

TAF TAF CYZX
Valide du 14 à 00h jusqu'au 15 à 00h UTC


132330Z 1400/1424 12005KT P6SM BKN025 BKN220
FM141200 09010KT P6SM BKN020 OVC100
FM141500 10012G22KT 6SM -RA BR OVC015
BECMG 1417/1418 12015G25KT
BECMG 1420/1422 16020G30KT RMK NXT FCST BY 140600Z



MET'MAP, la Météo Aéronautique d'un coup d'oeil ! - Copyright ORBIFLY Décembre 2007 - Disclaimer

ORBIFLY MET'MAP TEAM :

Programmation & Développement : Alexandra Zaïnal
Sur une idée originale de : Baudouin d'Aumeries
Assistance à la programmation : Marc-Olivier Méhu
Soutien technique & logistique : Manuel Goepfert

Contact : metmap@orbifly.com




SOURCES & CREDITS :

   NOAA